Aviation Digital Data Service (ADDS)

Output produced by TAFs form (1337 UTC 20 August 2017)
found at http://www.aviationweather.gov/adds/tafs/
 
KERI 201251Z 20007KT 10SM CLR 21/16 A3010 RMK AO2 SLP188 T02060156
KERI 201138Z 2012/2112 VRB03KT P6SM FEW045 
     FM201400 26008KT P6SM FEW040 
     FM201600 20010KT P6SM SKC 
     FM210000 VRB03KT P6SM SKC 
     FM210300 16006KT P6SM FEW250
       
KFKL 201335Z AUTO 23005KT 10SM CLR 20/15 A3016 RMK AO1
KFKL 201226Z 2012/2112 VRB03KT P6SM SKC AMD LTD TO CLD VIS AND WIND
       
KYNG 201251Z 18005KT 10SM CLR 19/16 A3013 RMK AO2 SLP198 T01940161
KYNG 201138Z 2012/2112 00000KT P6SM SKC 
     TEMPO 2012/2013 5SM BR SCT002 
     FM201700 VRB03KT P6SM FEW050
       
KBVI 201132Z 2012/2112 00000KT 1/4SM FG VV001 
     FM201330 00000KT 1SM BR SCT002 
     FM201500 VRB03KT P6SM SKC AMD NOT SKED
       
KAGC 201323Z 00000KT 1/2SM R28/1200VP6000FT FG VV002 17/16 A3014 RMK AO2 T01720161
KAGC 201132Z 2012/2112 00000KT 1/4SM FG VV002 
     FM201330 00000KT 2SM BR SCT002 
     FM201500 VRB03KT P6SM SKC
       
KPIT 201335Z 14004KT 2 1/2SM BR BKN002 17/17 A3015 RMK AO2 T01720172 $
KPIT 201256Z 2013/2118 00000KT 1/4SM FG VV001 
     FM201400 00000KT 2SM BR SCT002 
     FM201430 VRB03KT P6SM SKC
       
KBTP 201335Z 14003KT 3SM BKN002 17/16 A3017 RMK AO2 SLP302 PWINO PNO FZRANO RVRNO